首页
METAR-TAF:

METAR-TAF

机场 :

Floyd Bennett Memorial Airport

Glens Falls, 紐約州, 美国

纬度: 43-20-28N, 经度: 073-36-38W, 海拔: 100米

当前天气观测

该预报发布于43分钟前的19:53 UTC
风速16节,风向西转西北,有时为20节阵风
温度 1°C
湿度 27%
气压 1023 hPa
能見度: 16.1公里
天空无云

METAR: KGFL 191953Z AUTO 30016G20KT 10SM CLR 01/M16 A3021 RMK AO2 SLP238 T00111161

时间: 15:36 (20:36 UTC)

预报

该预报发布于3小时和14分钟前的17:22 UTC
预报有效从19日的 18点(UTC)到 20日的 18点(UTC)
风速17节,风向西转西北,有时为27节阵风
能見度: 10公里
多云层高于6000英尺
从 19日的 2200点(UTC)
风速12节,风向西转西北,有时为22节阵风
能見度: 10公里
散云层高于5000英尺
从 20日的 0400点(UTC)
风速5节,风向西转西北
能見度: 10公里
多云层高于5000英尺
从 20日的 1400点(UTC)
风速8节,风向西北
能見度: 10公里
多云层高于6000英尺
附近有阵雨

TAF: KGFL 191722Z 1918/2018 30017G27KT P6SM BKN060 FM192200 29012G22KT P6SM SCT050 FM200400 29005KT P6SM BKN050 FM201400 32008KT P6SM VCSH BKN060

超过4000个机场的气象观测和天气预报(METAR&TAF报告)。

可查询的气象台以黄色和红色小点在地图上表示。

将鼠标移到小点上方,可查看气象台名称。

然后点击查看天气观测和预报。

如需切换地图:点击带黑十字的绿色按钮放大地图;点击带横线的绿色按钮缩小地图;或者点击绿色箭头查看邻近地区的地图。


METAR-TAF: